Time;durP1;ratioP1;P1;durP2;ratioP2;P2;SDS_P1;SDS_P2;PMS_P1;PMS_P2;Temp;Humidity;BMP_temperature;BMP_pressure;BME280_temperature;BME280_humidity;BME280_pressure;Samples;Min_cycle;Max_cycle;Signal;HPM_P1;HPM_P2
2023/10/08 00:02:25;;;;;;;10.23;4.43;;;14.30;85.40;;;;;;4856303;29;20084;-74
2023/10/08 00:04:52;;;;;;;6.93;3.45;;;14.30;85.70;;;;;;4858769;29;20045;-74
2023/10/08 00:07:21;;;;;;;7.78;3.88;;;14.20;85.80;;;;;;4854596;29;20367;-76
2023/10/08 00:09:48;;;;;;;8.77;3.88;;;14.10;86.30;;;;;;4854096;29;20036;-77
2023/10/08 00:12:16;;;;;;;8.18;3.85;;;14.10;86.70;;;;;;4853596;29;20307;-76
2023/10/08 00:14:44;;;;;;;8.20;3.80;;;14.00;87.40;;;;;;4854117;29;20026;-76
2023/10/08 00:17:11;;;;;;;;;;;14.00;87.50;;;;;;4875462;29;20512;-76
2023/10/08 00:19:38;;;;;;;7.82;3.75;;;14.00;87.60;;;;;;4880894;29;19931;-77
2023/10/08 00:22:06;;;;;;;8.68;3.95;;;13.90;88.10;;;;;;4874690;29;20025;-77
2023/10/08 00:24:33;;;;;;;;;;;14.00;88.30;;;;;;4876654;29;20025;-75
2023/10/08 00:27:00;;;;;;;8.57;3.95;;;13.90;88.60;;;;;;4876266;29;19947;-76
2023/10/08 00:29:26;;;;;;;7.93;4.25;;;14.00;88.90;;;;;;4875389;29;20350;-76
2023/10/08 07:10:23;;;;;;;10.02;4.35;;;12.80;94.40;;;;;;5451767;23;20169;-76
2023/10/08 07:12:52;;;;;;;9.88;4.05;;;13.00;94.30;;;;;;4864195;29;20033;-77
2023/10/08 07:15:23;;;;;;;7.80;3.90;;;13.20;94.20;;;;;;4871186;29;20089;-74
2023/10/08 07:17:51;;;;;;;8.13;3.25;;;13.40;93.60;;;;;;4885654;29;20244;-74
2023/10/08 07:20:21;;;;;;;9.68;3.75;;;13.50;93.10;;;;;;4871027;29;20045;-74
2023/10/08 07:22:53;;;;;;;9.15;4.13;;;13.70;93.00;;;;;;4854204;29;20025;-76
2023/10/08 07:25:21;;;;;;;8.88;3.55;;;13.90;92.90;;;;;;4853654;29;20307;-75
2023/10/08 07:27:47;;;;;;;9.25;3.90;;;14.30;92.20;;;;;;4884477;29;20063;-76
2023/10/08 07:30:13;;;;;;;7.93;3.70;;;14.60;91.70;;;;;;4873010;29;20288;-74
2023/10/08 07:32:42;;;;;;;10.23;3.80;;;14.90;90.80;;;;;;4889138;29;20037;-77
2023/10/08 07:37:46;;;;;;;8.45;3.33;;;15.50;90.30;;;;;;4888777;29;20029;-74
2023/10/08 07:40:14;;;;;;;8.23;3.53;;;15.70;89.00;;;;;;4889580;29;20056;-73
2023/10/08 07:42:40;;;;;;;7.18;3.35;;;15.90;87.30;;;;;;4887734;29;20024;-76
2023/10/08 07:45:06;;;;;;;7.30;3.72;;;16.00;87.50;;;;;;4880410;29;20069;-75
2023/10/08 07:47:32;;;;;;;9.85;3.85;;;16.00;87.70;;;;;;4882144;29;20021;-75
2023/10/08 07:50:04;;;;;;;9.25;3.85;;;16.00;87.80;;;;;;4866093;29;20074;-75
2023/10/08 07:52:37;;;;;;;8.45;3.80;;;16.20;87.90;;;;;;4856222;29;20040;-74
2023/10/08 07:55:04;;;;;;;10.38;4.32;;;16.40;88.00;;;;;;4871624;29;20061;-76
2023/10/08 07:57:30;;;;;;;8.73;3.47;;;16.50;87.90;;;;;;4889003;29;20027;-76
2023/10/08 08:00:17;;;;;;;10.52;3.92;;;16.50;86.90;;;;;;4888989;29;20029;-77
2023/10/08 08:02:45;;;;;;;10.75;4.13;;;16.60;85.70;;;;;;4888597;29;20226;-76
2023/10/08 08:05:16;;;;;;;7.13;3.15;;;16.60;85.90;;;;;;4889129;29;20025;-75
2023/10/08 08:07:45;;;;;;;10.05;4.10;;;16.60;86.10;;;;;;4888511;29;20039;-75
2023/10/08 08:10:11;;;;;;;8.70;3.85;;;16.60;85.40;;;;;;4888446;29;20259;-75
2023/10/08 08:12:37;;;;;;;8.38;3.92;;;16.70;85.20;;;;;;4888622;29;20106;-75
2023/10/08 08:15:14;;;;;;;10.00;4.32;;;16.80;86.00;;;;;;4889194;29;20024;-74
2023/10/08 08:17:44;;;;;;;7.25;3.75;;;16.90;85.90;;;;;;4879228;29;20033;-74
2023/10/08 08:20:21;;;;;;;9.20;4.07;;;16.80;85.90;;;;;;4870541;29;20065;-76
2023/10/08 08:22:50;;;;;;;10.03;4.57;;;16.70;86.80;;;;;;4868880;29;20033;-75
2023/10/08 08:25:26;;;;;;;9.20;3.95;;;16.50;87.40;;;;;;4869965;29;20082;-76
2023/10/08 08:27:53;;;;;;;9.07;4.20;;;16.50;87.90;;;;;;4869851;29;20374;-76
2023/10/08 08:30:26;;;;;;;10.40;4.10;;;16.50;86.60;;;;;;4870169;29;20142;-75
2023/10/08 08:32:52;;;;;;;9.40;4.70;;;16.50;86.80;;;;;;4845959;29;20034;-75
2023/10/08 08:35:19;;;;;;;9.48;4.05;;;16.60;87.10;;;;;;4826763;29;20078;-76
2023/10/08 08:37:46;;;;;;;8.05;4.00;;;16.70;85.90;;;;;;4836839;29;20057;-75
2023/10/08 08:40:17;;;;;;;11.07;4.90;;;16.70;85.10;;;;;;4835429;29;20097;-77
2023/10/08 08:42:58;;;;;;;9.55;3.80;;;16.90;84.90;;;;;;4834763;29;20113;-75
2023/10/08 08:45:24;;;;;;;10.88;3.85;;;17.10;84.00;;;;;;4850080;29;20045;-75
2023/10/08 08:47:51;;;;;;;11.93;4.13;;;17.30;83.30;;;;;;4852721;29;20320;-77
2023/10/08 08:50:19;;;;;;;8.23;3.85;;;17.50;82.10;;;;;;4853296;29;20046;-78
2023/10/08 08:52:45;;;;;;;9.38;3.78;;;17.70;82.60;;;;;;4852993;29;20220;-76
2023/10/08 08:55:14;;;;;;;7.50;3.47;;;18.00;80.50;;;;;;4837937;29;20089;-76
2023/10/08 08:57:44;;;;;;;8.43;3.50;;;18.20;79.80;;;;;;4845510;29;20360;-76
2023/10/08 09:00:14;;;;;;;7.88;3.60;;;18.50;79.10;;;;;;4819826;29;20343;-77
2023/10/08 09:02:41;;;;;;;7.80;3.20;;;18.70;78.70;;;;;;4835515;29;20038;-75
2023/10/08 09:05:42;;;;;;;9.32;3.97;;;19.00;78.80;;;;;;4859447;29;20029;-75
2023/10/08 09:08:07;;;;;;;8.10;4.05;;;19.10;77.70;;;;;;4866218;29;20042;-76
2023/10/08 09:10:50;;;;;;;8.45;3.60;;;19.20;77.00;;;;;;4860505;29;20121;-75
2023/10/08 09:13:20;;;;;;;9.02;3.65;;;19.50;75.90;;;;;;4853548;29;20204;-74
2023/10/08 09:15:46;;;;;;;8.45;2.90;;;19.90;75.60;;;;;;4854211;29;20041;-77
2023/10/08 09:18:14;;;;;;;11.73;4.00;;;19.90;75.90;;;;;;4864095;29;20021;-75
2023/10/08 09:20:47;;;;;;;7.80;3.17;;;20.20;75.00;;;;;;4869287;29;20390;-75
2023/10/08 09:23:21;;;;;;;10.07;3.22;;;20.40;74.50;;;;;;4882219;29;20045;-74
2023/10/08 09:25:51;;;;;;;8.48;3.08;;;20.80;73.10;;;;;;4879625;29;20033;-77
2023/10/08 09:28:18;;;;;;;8.95;3.15;;;21.30;72.90;;;;;;4859908;29;20048;-76
2023/10/08 09:30:48;;;;;;;9.45;3.83;;;21.70;72.10;;;;;;4890985;29;20021;-73
2023/10/08 09:33:15;;;;;;;8.70;3.65;;;21.90;71.20;;;;;;4891562;29;20261;-74
2023/10/08 09:35:45;;;;;;;7.57;2.83;;;22.20;70.50;;;;;;4862516;29;20032;-77
2023/10/08 09:38:11;;;;;;;8.57;3.63;;;22.30;70.50;;;;;;4874682;29;20025;-76
2023/10/08 09:40:48;;;;;;;9.43;3.60;;;22.50;70.40;;;;;;4874782;29;20029;-78
2023/10/08 09:43:17;;;;;;;6.15;3.00;;;22.80;70.50;;;;;;4891536;29;20146;-80
2023/10/08 09:45:59;;;;;;;8.10;3.60;;;22.90;69.50;;;;;;4873557;29;20081;-77
2023/10/08 09:48:32;;;;;;;10.07;3.33;;;23.10;69.10;;;;;;4855303;29;20062;-76
2023/10/08 09:50:59;;;;;;;14.27;5.13;;;23.20;67.60;;;;;;4872395;29;20081;-77
2023/10/08 09:53:44;;;;;;;18.45;8.95;;;23.30;67.60;;;;;;4840857;29;20048;-77
2023/10/08 09:56:15;;;;;;;14.20;5.82;;;23.30;67.80;;;;;;4872707;29;20052;-77
2023/10/08 09:58:42;;;;;;;14.80;4.93;;;23.20;67.80;;;;;;4855853;29;20057;-76
2023/10/08 10:01:11;;;;;;;7.82;3.50;;;23.10;67.70;;;;;;4872180;29;20033;-76
2023/10/08 10:03:39;;;;;;;10.82;4.38;;;23.10;67.60;;;;;;4872252;29;20101;-75
2023/10/08 10:06:11;;;;;;;10.55;3.85;;;23.10;67.60;;;;;;4843692;29;20038;-76
2023/10/08 10:08:36;;;;;;;10.60;3.97;;;23.20;67.60;;;;;;4853779;29;20203;-75
2023/10/08 10:11:03;;;;;;;11.05;3.50;;;23.20;67.30;;;;;;4852989;29;20050;-77
2023/10/08 10:13:33;;;;;;;9.65;3.67;;;23.10;66.80;;;;;;4863500;29;20053;-76
2023/10/08 10:15:59;;;;;;;8.70;3.47;;;23.40;66.80;;;;;;4866248;29;20021;-76
2023/10/08 10:18:31;;;;;;;8.13;3.47;;;23.60;66.70;;;;;;4864531;29;20264;-75
2023/10/08 10:21:13;;;;;;;7.22;3.60;;;23.70;66.70;;;;;;4871833;29;20056;-78
2023/10/08 10:23:42;;;;;;;9.25;3.50;;;24.00;66.10;;;;;;4871973;29;20038;-77
2023/10/08 10:26:23;;;;;;;7.80;3.45;;;24.30;65.60;;;;;;4872011;29;20036;-76
2023/10/08 10:29:08;;;;;;;8.63;3.65;;;24.40;65.60;;;;;;4852458;29;20061;-77
2023/10/08 10:31:35;;;;;;;11.18;3.42;;;24.40;65.30;;;;;;4853491;29;20066;-78
2023/10/08 10:34:15;;;;;;;7.28;3.55;;;24.50;65.30;;;;;;4852863;29;20094;-75
2023/10/08 10:36:43;;;;;;;8.52;2.92;;;24.50;65.00;;;;;;4852986;29;20087;-76
2023/10/08 10:39:16;;;;;;;7.88;3.00;;;24.50;64.00;;;;;;4853578;29;20038;-78
2023/10/08 10:41:46;;;;;;;7.40;3.33;;;24.50;64.70;;;;;;4852992;29;20049;-77
2023/10/08 10:44:16;;;;;;;7.07;3.13;;;24.60;65.40;;;;;;4845025;29;20093;-77
2023/10/08 10:46:44;;;;;;;7.78;2.90;;;24.40;65.60;;;;;;4869176;29;20072;-78
2023/10/08 10:49:21;;;;;;;7.78;3.33;;;24.50;65.80;;;;;;4871504;29;20021;-77
2023/10/08 10:51:57;;;;;;;10.40;3.97;;;24.50;65.50;;;;;;4869694;29;20045;-77
2023/10/08 10:54:23;;;;;;;10.00;3.60;;;24.70;64.90;;;;;;4871842;29;20041;-77
2023/10/08 10:57:06;;;;;;;6.95;2.78;;;24.80;64.10;;;;;;4870120;29;20211;-76
2023/10/08 10:59:38;;;;;;;7.75;3.28;;;25.00;64.30;;;;;;4854865;29;20088;-76
2023/10/08 11:04:45;;;;;;;7.20;2.65;;;26.30;62.20;;;;;;4854663;29;20041;-75
2023/10/08 11:07:12;;;;;;;4.63;2.72;;;26.60;61.40;;;;;;4839826;29;20040;-76
2023/10/08 11:09:38;;;;;;;5.50;2.58;;;26.90;61.20;;;;;;4852454;29;20064;-76
2023/10/08 11:12:12;;;;;;;8.55;3.10;;;26.80;60.60;;;;;;4854958;29;20030;-77
2023/10/08 11:14:42;;;;;;;5.82;2.85;;;26.50;61.10;;;;;;4848907;29;20177;-77
2023/10/08 11:17:14;;;;;;;7.93;3.28;;;26.20;61.60;;;;;;4852313;29;20059;-78
2023/10/08 11:19:42;;;;;;;6.57;2.85;;;25.70;62.50;;;;;;4836001;29;20269;-78
2023/10/08 11:22:15;;;;;;;6.88;3.03;;;25.30;62.80;;;;;;4854842;29;20034;-78
2023/10/08 11:24:42;;;;;;;7.70;3.30;;;25.30;64.00;;;;;;4854548;29;20045;-77
2023/10/08 11:27:17;;;;;;;5.72;3.17;;;25.50;63.60;;;;;;4871099;29;20033;-76
2023/10/08 11:29:56;;;;;;;8.30;3.42;;;26.00;63.50;;;;;;4854152;29;20064;-76
2023/10/08 11:32:25;;;;;;;7.13;2.70;;;26.20;61.90;;;;;;4870790;29;20045;-75
2023/10/08 11:34:59;;;;;;;7.45;3.03;;;26.10;62.20;;;;;;4870348;29;20329;-76
2023/10/08 11:37:35;;;;;;;6.63;3.15;;;26.00;61.60;;;;;;4854598;29;20096;-75
2023/10/08 11:40:17;;;;;;;5.35;2.88;;;26.50;61.90;;;;;;4854058;29;20034;-75
2023/10/08 11:42:43;;;;;;;8.05;3.10;;;27.20;61.00;;;;;;4854576;29;20033;-74
2023/10/08 11:45:23;;;;;;;8.57;3.88;;;27.30;60.30;;;;;;4854402;29;20033;-75
2023/10/08 11:48:11;;;;;;;7.88;3.42;;;27.10;59.90;;;;;;4870486;29;20029;-76
2023/10/08 11:50:38;;;;;;;8.93;3.37;;;27.00;60.80;;;;;;4853825;29;20235;-74
2023/10/08 11:53:05;;;;;;;5.30;3.08;;;26.90;61.40;;;;;;4870013;29;20029;-75
2023/10/08 11:55:38;;;;;;;10.30;3.40;;;26.60;60.90;;;;;;4870817;29;20026;-76
2023/10/08 11:58:10;;;;;;;6.97;3.53;;;26.60;61.30;;;;;;4853394;29;20225;-75
2023/10/08 12:00:46;;;;;;;9.55;3.50;;;26.60;61.60;;;;;;4870358;29;20033;-76
2023/10/08 12:03:18;;;;;;;8.85;3.40;;;26.90;61.60;;;;;;4854454;29;20375;-77
2023/10/08 12:05:48;;;;;;;7.38;3.28;;;27.70;60.90;;;;;;4853829;29;20029;-74
2023/10/08 12:08:20;;;;;;;7.93;3.20;;;28.40;59.70;;;;;;4854055;29;20044;-77
2023/10/08 12:10:47;;;;;;;9.95;3.33;;;29.60;59.00;;;;;;4850331;29;20328;-76
2023/10/08 12:13:16;;;;;;;9.63;4.20;;;30.40;57.40;;;;;;4851559;29;20030;-79
2023/10/08 12:16:12;;;;;;;8.65;3.33;;;30.20;56.60;;;;;;4850967;29;20339;-78
2023/10/08 12:18:40;;;;;;;7.80;3.17;;;29.90;56.70;;;;;;4847872;29;20073;-79
2023/10/08 12:21:15;;;;;;;10.45;3.75;;;30.40;56.20;;;;;;4850311;29;20271;-78
2023/10/08 12:23:46;;;;;;;6.57;3.17;;;31.60;55.30;;;;;;4855418;29;20380;-75
2023/10/08 12:26:19;;;;;;;7.93;3.55;;;32.60;53.90;;;;;;4855537;29;20033;-76
2023/10/08 12:28:48;;;;;;;8.02;3.33;;;32.80;53.20;;;;;;4850898;29;20379;-76
2023/10/08 12:31:15;;;;;;;7.82;3.10;;;32.50;52.80;;;;;;4851559;29;20046;-77
2023/10/08 12:33:43;;;;;;;7.00;3.38;;;33.20;52.40;;;;;;4851758;29;20033;-77
2023/10/08 12:36:10;;;;;;;7.13;3.45;;;33.90;51.80;;;;;;4850387;29;20038;-79
2023/10/08 12:38:37;;;;;;;6.90;3.42;;;34.00;51.20;;;;;;4851679;29;20037;-77
2023/10/08 12:41:11;;;;;;;9.23;4.38;;;34.30;51.20;;;;;;4851374;29;20030;-77
2023/10/08 12:43:38;;;;;;;6.63;3.63;;;34.50;50.60;;;;;;4851641;29;20050;-82
2023/10/08 12:46:24;;;;;;;6.22;3.65;;;35.00;50.00;;;;;;4851025;29;20319;-80
2023/10/08 12:48:54;;;;;;;9.68;3.78;;;35.10;49.90;;;;;;4850170;29;20038;-79
2023/10/08 12:51:25;;;;;;;8.70;3.58;;;35.50;49.40;;;;;;4835537;29;20044;-77
2023/10/08 12:53:58;;;;;;;10.68;3.63;;;36.80;48.60;;;;;;4851026;29;20076;-79
2023/10/08 12:56:35;;;;;;;6.88;3.20;;;38.10;47.50;;;;;;4850676;29;20041;-80
2023/10/08 12:59:08;;;;;;;6.57;3.90;;;39.00;47.00;;;;;;4835046;29;20335;-79
2023/10/08 13:01:41;;;;;;;9.60;3.30;;;38.90;45.90;;;;;;4851460;29;20030;-79
2023/10/08 13:04:15;;;;;;;5.78;3.40;;;39.00;46.40;;;;;;4834764;29;20030;-79
2023/10/08 13:06:45;;;;;;;8.10;3.50;;;39.10;46.10;;;;;;4835460;29;20030;-79
2023/10/08 13:09:12;;;;;;;7.97;3.67;;;39.60;45.40;;;;;;4851116;29;20090;-80
2023/10/08 13:11:43;;;;;;;8.23;3.20;;;39.70;45.10;;;;;;4866028;29;20053;-79
2023/10/08 13:14:11;;;;;;;7.97;3.03;;;39.70;45.10;;;;;;4868464;29;20266;-79
2023/10/08 13:16:37;;;;;;;7.82;3.65;;;39.70;44.60;;;;;;4853515;29;20083;-78
2023/10/08 13:19:15;;;;;;;8.15;3.67;;;39.60;44.50;;;;;;4869143;29;20038;-80
2023/10/08 13:21:41;;;;;;;7.78;3.60;;;39.70;44.70;;;;;;4869901;29;20045;-79
2023/10/08 13:24:08;;;;;;;9.43;3.30;;;39.60;44.20;;;;;;4870002;29;20076;-77
2023/10/08 13:26:37;;;;;;;7.75;3.50;;;38.60;45.00;;;;;;4857046;29;20021;-80
2023/10/08 13:29:13;;;;;;;8.65;3.65;;;39.10;45.40;;;;;;4870758;29;20037;-80
2023/10/08 13:31:39;;;;;;;7.93;3.38;;;40.00;44.50;;;;;;4871832;29;20029;-77
2023/10/08 13:34:08;;;;;;;9.02;3.55;;;40.60;43.70;;;;;;4856258;29;20249;-79
2023/10/08 13:39:56;;;;;;;11.85;4.22;;;41.00;43.60;;;;;;4871711;29;20044;-78
2023/10/08 13:42:26;;;;;;;9.45;4.30;;;41.10;43.20;;;;;;4856775;29;20030;-80
2023/10/08 13:44:59;;;;;;;9.52;3.95;;;41.30;42.30;;;;;;4856537;29;20040;-76
2023/10/08 13:47:33;;;;;;;12.93;3.95;;;41.60;41.60;;;;;;4872017;29;20057;-79
2023/10/08 13:50:37;;;;;;;10.68;3.70;;;41.50;41.00;;;;;;4856114;29;20033;-77
2023/10/08 13:53:13;;;;;;;9.57;4.00;;;41.00;40.40;;;;;;4814791;29;20034;-79
2023/10/08 13:55:45;;;;;;;8.60;3.55;;;41.00;40.20;;;;;;4819631;29;20039;-79
2023/10/08 13:58:12;;;;;;;11.02;3.90;;;40.90;40.80;;;;;;4818714;29;20035;-77
2023/10/08 14:00:38;;;;;;;7.60;3.88;;;40.60;40.60;;;;;;4834202;29;20113;-77
2023/10/08 14:03:07;;;;;;;8.77;3.63;;;39.90;41.10;;;;;;4803464;29;20355;-79
2023/10/08 14:05:39;;;;;;;11.50;3.75;;;39.90;41.10;;;;;;4826009;29;20034;-77
2023/10/08 14:08:15;;;;;;;12.40;3.63;;;39.90;41.00;;;;;;4798075;29;20051;-78
2023/10/08 14:10:45;;;;;;;9.02;3.65;;;39.80;41.60;;;;;;4780746;30;20067;-79
2023/10/08 14:13:11;;;;;;;9.27;3.55;;;39.90;40.80;;;;;;4797095;30;20356;-79
2023/10/08 14:15:46;;;;;;;10.57;3.47;;;39.80;41.30;;;;;;4798066;30;20057;-77
2023/10/08 14:18:17;;;;;;;;;;;39.70;41.90;;;;;;4805712;29;20046;-78
2023/10/08 14:20:57;;;;;;;9.55;3.47;;;40.10;40.90;;;;;;4785200;29;19916;-78
2023/10/08 14:27:02;;;;;;;8.95;3.65;;;39.60;40.90;;;;;;4838149;29;20085;-78
2023/10/08 14:29:33;;;;;;;9.77;3.80;;;39.30;40.90;;;;;;4855841;29;20038;-80
2023/10/08 14:32:08;;;;;;;7.72;3.45;;;40.00;40.60;;;;;;4871904;29;20066;-80
2023/10/08 14:45:13;;;;;;;11.32;3.53;;;39.30;41.60;;;;;;4855527;29;20219;-76
2023/10/08 14:48:55;;;;;;;8.00;3.17;;;39.20;41.20;;;;;;4850547;29;20117;-78
2023/10/08 14:51:29;;;;;;;10.25;3.20;;;39.20;41.10;;;;;;4764591;29;20048;-77
2023/10/08 14:53:55;;;;;;;8.80;3.15;;;39.30;41.00;;;;;;4839272;29;20204;-77
2023/10/08 14:56:39;;;;;;;10.65;3.25;;;38.80;41.00;;;;;;4839808;29;20028;-79
2023/10/08 14:59:20;;;;;;;11.90;3.97;;;38.20;41.30;;;;;;4840176;29;20081;-77
2023/10/08 15:02:04;;;;;;;8.77;3.22;;;38.00;42.00;;;;;;4870683;29;20098;-77
2023/10/08 15:04:31;;;;;;;11.40;3.90;;;37.60;41.80;;;;;;4855631;29;20037;-76
2023/10/08 15:06:57;;;;;;;11.15;3.83;;;37.40;42.90;;;;;;4818369;29;20339;-76
2023/10/08 15:09:24;;;;;;;9.85;4.07;;;37.60;44.10;;;;;;4818895;29;20088;-76
2023/10/08 15:12:04;;;;;;;9.43;3.88;;;37.00;44.90;;;;;;4829722;29;20086;-79
2023/10/08 15:14:33;;;;;;;8.90;3.50;;;36.80;45.70;;;;;;4833616;29;20345;-77
2023/10/08 15:17:01;;;;;;;7.97;3.80;;;37.10;45.70;;;;;;4836589;29;20025;-77
2023/10/08 15:19:27;;;;;;;10.77;3.90;;;37.10;46.20;;;;;;4869910;29;20081;-81
2023/10/08 15:22:07;;;;;;;10.20;4.15;;;36.80;46.30;;;;;;4840370;29;20026;-77
2023/10/08 15:24:40;;;;;;;9.95;4.28;;;36.90;46.50;;;;;;4839414;29;20104;-76
2023/10/08 15:27:06;;;;;;;9.30;4.40;;;36.80;46.20;;;;;;4870523;29;20074;-74
2023/10/08 15:29:35;;;;;;;9.10;4.55;;;36.40;46.30;;;;;;4870845;29;20025;-75
2023/10/08 15:32:00;;;;;;;7.22;3.60;;;36.50;46.60;;;;;;4870511;29;20037;-77
2023/10/08 15:34:29;;;;;;;9.15;3.85;;;35.60;47.40;;;;;;4870851;29;20097;-76
2023/10/08 15:36:55;;;;;;;11.32;4.63;;;34.50;48.40;;;;;;4870713;29;20096;-77
2023/10/08 15:39:24;;;;;;;12.75;4.60;;;33.60;49.90;;;;;;4851669;29;20134;-75
2023/10/08 15:41:52;;;;;;;9.85;3.60;;;32.40;51.50;;;;;;4847323;29;20026;-75
2023/10/08 15:44:21;;;;;;;10.50;3.53;;;31.60;51.40;;;;;;4854682;29;20559;-75
2023/10/08 15:46:51;;;;;;;11.15;4.07;;;31.10;52.90;;;;;;4853141;29;20217;-74
2023/10/08 15:49:19;;;;;;;10.45;3.65;;;30.60;52.60;;;;;;4865808;29;20323;-75
2023/10/08 15:51:46;;;;;;;8.80;3.70;;;30.30;53.40;;;;;;4870953;29;20078;-74
2023/10/08 15:54:12;;;;;;;8.97;3.37;;;29.90;53.80;;;;;;4870272;29;20113;-74
2023/10/08 15:56:38;;;;;;;8.95;3.50;;;29.50;55.00;;;;;;4865640;29;20071;-76
2023/10/08 15:59:04;;;;;;;8.90;3.47;;;29.10;55.10;;;;;;4851389;29;20080;-75
2023/10/08 16:01:29;;;;;;;10.57;4.00;;;29.10;55.40;;;;;;4852413;29;20416;-76
2023/10/08 16:03:55;;;;;;;8.38;3.70;;;29.00;55.70;;;;;;4852251;29;20103;-74
2023/10/08 16:06:27;;;;;;;9.60;3.67;;;29.10;56.30;;;;;;4865478;29;20037;-76
2023/10/08 16:08:52;;;;;;;9.73;4.55;;;29.00;56.80;;;;;;4870699;29;20040;-74
2023/10/08 16:11:19;;;;;;;9.38;3.38;;;28.90;56.50;;;;;;4870034;29;20053;-75
2023/10/08 16:13:45;;;;;;;12.27;3.55;;;28.90;57.20;;;;;;4869966;29;20097;-75
2023/10/08 16:16:11;;;;;;;12.25;3.80;;;28.70;56.80;;;;;;4869985;29;20200;-76
2023/10/08 16:18:38;;;;;;;8.55;3.72;;;28.60;57.80;;;;;;4859484;29;20044;-76
2023/10/08 16:21:06;;;;;;;9.15;3.80;;;28.30;58.00;;;;;;4851969;29;20029;-77
2023/10/08 16:23:35;;;;;;;10.40;3.47;;;27.90;58.70;;;;;;4850750;29;20262;-76
2023/10/08 16:26:02;;;;;;;9.65;4.07;;;27.60;59.70;;;;;;4851375;29;20090;-75
2023/10/08 16:28:30;;;;;;;7.75;3.65;;;27.30;60.40;;;;;;4851751;29;20025;-75
2023/10/08 16:30:58;;;;;;;10.50;3.63;;;27.10;60.60;;;;;;4848634;29;20106;-75
2023/10/08 16:33:24;;;;;;;10.43;4.28;;;26.90;61.00;;;;;;4833330;29;20047;-76
2023/10/08 16:35:51;;;;;;;9.90;4.40;;;26.70;61.20;;;;;;4817227;29;20031;-74
2023/10/08 16:38:19;;;;;;;10.32;4.32;;;26.50;61.90;;;;;;4831880;29;20181;-79
2023/10/08 16:40:46;;;;;;;13.50;4.75;;;26.20;61.90;;;;;;4833436;29;20117;-75
2023/10/08 16:43:15;;;;;;;14.20;4.53;;;26.00;63.00;;;;;;4841221;29;20088;-74
2023/10/08 16:45:46;;;;;;;9.88;4.45;;;25.70;63.10;;;;;;4846602;29;20061;-74
2023/10/08 16:48:15;;;;;;;13.23;5.25;;;25.40;63.90;;;;;;4838700;29;20030;-74
2023/10/08 16:50:41;;;;;;;14.18;5.28;;;25.10;65.10;;;;;;4851446;29;20036;-76
2023/10/08 16:53:07;;;;;;;14.00;5.55;;;24.60;66.70;;;;;;4851298;29;20224;-76
2023/10/08 16:55:32;;;;;;;13.55;5.13;;;24.30;67.10;;;;;;4851880;29;20155;-75
2023/10/08 16:58:00;;;;;;;12.52;5.55;;;24.00;67.70;;;;;;4852715;29;20055;-77
2023/10/08 17:00:28;;;;;;;12.77;5.07;;;23.80;68.60;;;;;;4855380;29;20094;-74
2023/10/08 17:02:57;;;;;;;11.75;5.43;;;23.70;68.40;;;;;;4853048;29;20044;-76
2023/10/08 17:05:26;;;;;;;10.90;5.57;;;23.40;69.40;;;;;;4829428;29;20264;-77
2023/10/08 17:07:53;;;;;;;12.38;5.18;;;23.20;69.50;;;;;;4856735;29;20060;-79
2023/10/08 17:10:20;;;;;;;13.52;5.20;;;22.90;70.00;;;;;;4856207;29;20041;-76
2023/10/08 17:12:46;;;;;;;11.50;5.47;;;22.70;70.50;;;;;;4873959;29;20319;-77
2023/10/08 17:15:12;;;;;;;10.27;4.45;;;22.50;71.30;;;;;;4871732;29;20434;-75
2023/10/08 17:17:38;;;;;;;10.57;5.05;;;22.30;71.40;;;;;;4867436;29;20384;-77
2023/10/08 17:20:08;;;;;;;13.23;5.53;;;22.10;71.60;;;;;;4819467;29;20026;-74
2023/10/08 17:22:34;;;;;;;13.52;5.85;;;22.00;72.10;;;;;;4853808;29;20037;-77
2023/10/08 17:25:05;;;;;;;11.65;6.03;;;21.80;72.70;;;;;;4854698;29;20068;-78
2023/10/08 17:27:34;;;;;;;13.85;6.00;;;21.70;72.70;;;;;;4854669;29;20044;-75
2023/10/08 17:30:00;;;;;;;11.30;5.63;;;21.60;72.90;;;;;;4837982;29;20363;-76
2023/10/08 17:32:28;;;;;;;17.00;5.88;;;21.50;73.00;;;;;;4853657;29;20042;-79
2023/10/08 17:34:54;;;;;;;;;;;21.40;72.90;;;;;;4854945;29;20022;-74
2023/10/08 17:37:23;;;;;;;11.75;5.15;;;21.40;72.80;;;;;;4837320;29;19915;-76
2023/10/08 17:39:49;;;;;;;9.82;4.68;;;21.30;72.90;;;;;;4836479;29;20037;-76
2023/10/08 17:42:15;;;;;;;13.43;5.15;;;21.30;73.10;;;;;;4854069;29;20030;-75
2023/10/08 17:44:41;;;;;;;13.52;6.00;;;21.10;73.30;;;;;;4872806;29;20035;-75
2023/10/08 17:47:10;;;;;;;10.25;5.78;;;21.10;73.80;;;;;;4856232;29;20041;-75
2023/10/08 17:49:37;;;;;;;13.63;6.15;;;21.00;73.70;;;;;;4834630;29;20054;-78
2023/10/08 17:52:05;;;;;;;15.00;5.57;;;21.00;75.20;;;;;;4835917;29;20042;-76
2023/10/08 17:54:33;;;;;;;12.77;5.15;;;20.80;75.50;;;;;;4835925;29;20038;-77
2023/10/08 17:57:01;;;;;;;12.30;4.90;;;20.60;76.60;;;;;;4828926;29;20030;-75
2023/10/08 17:59:27;;;;;;;14.70;5.95;;;20.50;77.00;;;;;;4837289;29;20042;-79
2023/10/08 18:01:54;;;;;;;13.73;5.75;;;20.30;78.80;;;;;;4838912;29;20057;-76
2023/10/08 18:04:23;;;;;;;12.65;5.60;;;20.20;80.10;;;;;;4854361;29;20029;-77
2023/10/08 18:06:49;;;;;;;13.23;5.20;;;20.20;78.50;;;;;;4822812;29;20033;-76
2023/10/08 18:09:20;;;;;;;11.48;5.25;;;20.10;78.30;;;;;;4821882;29;20331;-76
2023/10/08 18:11:48;;;;;;;11.07;5.30;;;20.10;78.10;;;;;;4837203;29;20117;-77
2023/10/08 18:14:16;;;;;;;11.25;5.03;;;20.20;77.90;;;;;;4819662;29;20367;-77
2023/10/08 18:16:46;;;;;;;14.00;5.50;;;20.20;78.10;;;;;;4837060;29;20067;-77
2023/10/08 18:19:16;;;;;;;14.23;6.45;;;20.10;77.70;;;;;;4836468;29;20042;-76
2023/10/08 18:21:43;;;;;;;14.85;6.57;;;20.10;78.00;;;;;;4822077;29;20068;-77
2023/10/08 18:24:12;;;;;;;13.38;4.80;;;20.00;78.10;;;;;;4836674;29;20041;-77
2023/10/08 18:26:43;;;;;;;11.00;4.63;;;19.90;77.70;;;;;;4834427;29;20022;-78
2023/10/08 18:29:16;;;;;;;12.23;5.22;;;19.70;77.80;;;;;;4871818;29;20303;-76
2023/10/08 18:31:43;;;;;;;11.27;5.22;;;19.60;78.80;;;;;;4840442;29;20104;-77
2023/10/08 18:34:10;;;;;;;12.68;5.45;;;19.40;78.70;;;;;;4871393;29;20033;-77
2023/10/08 18:36:36;;;;;;;13.52;5.70;;;19.40;79.60;;;;;;4839912;29;20029;-77
2023/10/08 18:39:12;;;;;;;11.00;5.40;;;19.30;79.90;;;;;;4871696;29;20032;-77
2023/10/08 18:41:51;;;;;;;14.48;5.45;;;19.20;80.40;;;;;;4866770;29;20029;-77
2023/10/08 18:44:17;;;;;;;12.25;5.65;;;19.10;80.60;;;;;;4875965;29;20370;-77
2023/10/08 18:46:46;;;;;;;12.18;6.28;;;19.10;81.00;;;;;;4855341;29;20034;-77
2023/10/08 18:49:13;;;;;;;12.75;6.45;;;19.00;81.10;;;;;;4870096;29;20041;-78
2023/10/08 18:51:42;;;;;;;14.63;6.63;;;19.00;81.40;;;;;;4869491;29;20208;-78
2023/10/08 18:54:09;;;;;;;15.88;6.20;;;18.90;81.60;;;;;;4870164;29;20077;-77
2023/10/08 18:56:50;;;;;;;13.10;6.30;;;18.80;82.80;;;;;;4849873;29;20024;-78
2023/10/08 18:59:16;;;;;;;15.65;6.60;;;18.70;84.10;;;;;;4857811;29;20300;-77
2023/10/08 19:01:43;;;;;;;18.40;7.85;;;18.50;83.80;;;;;;4855046;29;20033;-76
2023/10/08 19:04:09;;;;;;;18.38;7.93;;;18.40;84.00;;;;;;4888836;29;20021;-77
2023/10/08 19:06:35;;;;;;;17.88;7.47;;;18.30;84.60;;;;;;4873241;29;20029;-76
2023/10/08 19:09:03;;;;;;;15.30;7.55;;;18.30;85.20;;;;;;4873209;29;20045;-76
2023/10/08 19:11:32;;;;;;;17.05;7.25;;;18.20;85.00;;;;;;4847773;29;20239;-76
2023/10/08 19:13:58;;;;;;;13.43;6.72;;;18.10;85.20;;;;;;4871168;29;20146;-78
2023/10/08 19:16:27;;;;;;;13.18;5.80;;;18.00;86.60;;;;;;4870916;29;20041;-76
2023/10/08 19:18:53;;;;;;;;;;;17.90;85.80;;;;;;4867583;29;20021;-79
2023/10/08 19:21:25;;;;;;;14.45;7.32;;;17.90;86.30;;;;;;4853159;29;19974;-77
2023/10/08 19:23:52;;;;;;;14.82;7.20;;;17.90;86.50;;;;;;4854491;29;20045;-76
2023/10/08 19:26:20;;;;;;;13.90;7.13;;;17.80;87.10;;;;;;4870977;29;20057;-76
2023/10/08 19:28:45;;;;;;;18.42;8.82;;;17.70;87.20;;;;;;4880961;29;20081;-77
2023/10/08 19:31:12;;;;;;;15.52;7.85;;;17.60;87.20;;;;;;4889335;29;20044;-77
2023/10/08 19:33:39;;;;;;;15.30;7.97;;;17.60;87.60;;;;;;4872872;29;20319;-76
2023/10/08 19:36:05;;;;;;;17.25;7.82;;;17.60;87.50;;;;;;4866629;29;20050;-77
2023/10/08 19:38:30;;;;;;;14.15;7.45;;;17.60;88.80;;;;;;4851809;29;20344;-76
2023/10/08 19:40:57;;;;;;;17.67;8.38;;;17.40;88.80;;;;;;4852055;29;20025;-74
2023/10/08 19:43:26;;;;;;;15.85;7.80;;;17.30;90.00;;;;;;4870599;29;20252;-75
2023/10/08 19:45:52;;;;;;;17.30;8.70;;;17.20;89.30;;;;;;4872308;29;20036;-76
2023/10/08 19:48:18;;;;;;;17.35;8.73;;;17.20;89.50;;;;;;4880581;29;20355;-74
2023/10/08 19:50:46;;;;;;;17.33;8.13;;;17.10;90.40;;;;;;4869322;29;20045;-77
2023/10/08 19:53:14;;;;;;;15.63;8.07;;;17.00;90.50;;;;;;4851992;29;20065;-76
2023/10/08 19:55:50;;;;;;;12.17;6.33;;;17.00;90.50;;;;;;4853962;29;20029;-76
2023/10/08 19:58:20;;;;;;;25.00;8.93;;;16.90;90.60;;;;;;4869860;29;20085;-76
2023/10/08 20:00:49;;;;;;;12.43;7.20;;;16.80;90.90;;;;;;4870251;29;20041;-76